createdAt,value
2023-03-29T00:02:07.341Z,7.12
2023-03-29T00:04:34.564Z,7.19
2023-03-29T00:07:04.331Z,7.15
2023-03-29T00:09:33.424Z,7.11
2023-03-29T00:12:01.712Z,7.02
2023-03-29T00:14:30.815Z,6.94
2023-03-29T00:16:59.208Z,6.87
2023-03-29T00:19:28.858Z,6.86
2023-03-29T00:21:55.642Z,6.84
2023-03-29T00:24:23.800Z,6.87
2023-03-29T00:26:50.650Z,6.85
2023-03-29T00:29:17.436Z,6.84
2023-03-29T00:31:53.511Z,6.84
2023-03-29T00:34:22.199Z,6.83
2023-03-29T00:36:53.029Z,6.76
2023-03-29T00:39:21.077Z,6.84
2023-03-29T00:41:50.158Z,6.85
2023-03-29T00:45:20.974Z,6.87
2023-03-29T00:47:53.795Z,6.87
2023-03-29T00:50:29.979Z,6.85
2023-03-29T00:53:07.197Z,6.84
2023-03-29T00:55:42.241Z,6.82
2023-03-29T00:58:17.920Z,6.83
2023-03-29T01:01:08.808Z,6.93
2023-03-29T01:03:46.143Z,6.99
2023-03-29T01:06:17.965Z,6.98
2023-03-29T01:08:52.580Z,6.98
2023-03-29T01:11:29.195Z,6.94
2023-03-29T01:14:03.976Z,6.88
2023-03-29T01:16:35.506Z,6.88
2023-03-29T01:19:02.527Z,6.92
2023-03-29T01:21:49.337Z,6.96
2023-03-29T01:24:52.441Z,6.88
2023-03-29T01:27:54.248Z,6.81
2023-03-29T01:30:40.197Z,6.75
2023-03-29T01:33:21.320Z,6.77
2023-03-29T01:36:08.092Z,6.84
2023-03-29T01:38:55.940Z,6.93
2023-03-29T01:41:34.605Z,6.93
2023-03-29T01:44:19.774Z,6.95
2023-03-29T01:46:54.568Z,7.05
2023-03-29T01:49:34.182Z,6.92
2023-03-29T01:52:19.025Z,6.94
2023-03-29T01:54:59.869Z,6.96
2023-03-29T01:57:27.636Z,6.98
2023-03-29T01:59:57.914Z,6.97
2023-03-29T02:02:30.849Z,7.05
2023-03-29T02:04:59.304Z,7.09
2023-03-29T02:07:37.196Z,7.12
2023-03-29T02:10:08.173Z,7.09
2023-03-29T02:12:35.561Z,7.08
2023-03-29T02:15:02.737Z,7.10
2023-03-29T02:17:30.423Z,7.12
2023-03-29T02:20:14.790Z,7.10
2023-03-29T02:22:57.507Z,7.08
2023-03-29T02:25:25.844Z,7.09
2023-03-29T02:27:53.975Z,7.12
2023-03-29T02:30:22.438Z,7.10
2023-03-29T02:33:09.223Z,7.08
2023-03-29T02:36:29.400Z,7.00
2023-03-29T02:39:00.685Z,7.03
2023-03-29T02:41:28.729Z,7.01
2023-03-29T02:43:57.576Z,7.00
2023-03-29T02:46:25.746Z,6.93
2023-03-29T02:48:54.738Z,6.88
2023-03-29T02:51:30.471Z,6.86
2023-03-29T02:54:15.543Z,6.83
2023-03-29T02:56:49.185Z,6.76
2023-03-29T02:59:19.469Z,6.72
2023-03-29T03:01:46.397Z,6.71
2023-03-29T03:04:13.477Z,6.59
2023-03-29T03:06:40.786Z,6.65
2023-03-29T03:09:07.925Z,6.64
2023-03-29T03:11:35.247Z,6.62
2023-03-29T03:14:02.379Z,6.55
2023-03-29T03:16:29.250Z,6.54
2023-03-29T03:18:56.076Z,6.53
2023-03-29T03:21:23.374Z,6.43
2023-03-29T03:23:50.265Z,6.44
2023-03-29T03:26:18.097Z,6.43
2023-03-29T03:28:48.743Z,6.43
2023-03-29T03:31:15.624Z,6.34
2023-03-29T03:33:42.435Z,6.30
2023-03-29T03:36:11.140Z,6.35
2023-03-29T03:38:38.906Z,6.39
2023-03-29T03:41:07.162Z,6.34
2023-03-29T03:43:35.095Z,6.20
2023-03-29T03:46:02.157Z,6.09
2023-03-29T03:48:29.079Z,6.00
2023-03-29T03:50:58.430Z,6.02
2023-03-29T03:53:28.393Z,6.07
2023-03-29T03:55:56.054Z,6.13
2023-03-29T03:58:24.111Z,6.17
2023-03-29T04:00:51.660Z,6.16
2023-03-29T04:03:19.231Z,6.12
2023-03-29T04:05:47.390Z,6.11
2023-03-29T04:08:15.138Z,6.10
2023-03-29T04:10:42.409Z,6.07
2023-03-29T04:13:09.220Z,6.12
2023-03-29T04:15:38.877Z,6.16
2023-03-29T04:18:07.631Z,6.12
2023-03-29T04:20:35.103Z,5.97
2023-03-29T04:23:02.025Z,5.96
2023-03-29T04:25:29.620Z,6.00
2023-03-29T04:27:56.578Z,5.98
2023-03-29T04:30:23.793Z,5.92
2023-03-29T04:32:50.737Z,5.96
2023-03-29T04:35:17.887Z,6.04
2023-03-29T04:37:44.977Z,5.91
2023-03-29T04:40:14.754Z,5.90
2023-03-29T04:42:44.849Z,5.95
2023-03-29T04:45:14.092Z,5.99
2023-03-29T04:47:44.500Z,6.00
2023-03-29T04:50:12.976Z,6.07
2023-03-29T04:52:39.929Z,6.12
2023-03-29T04:55:08.207Z,6.16
2023-03-29T04:57:35.122Z,6.07
2023-03-29T05:00:02.402Z,5.97
2023-03-29T05:02:32.239Z,5.97
2023-03-29T05:04:59.367Z,5.95
2023-03-29T05:07:26.264Z,6.00
2023-03-29T05:09:53.320Z,6.10
2023-03-29T05:12:20.119Z,6.15
2023-03-29T05:14:47.055Z,6.14
2023-03-29T05:17:14.262Z,6.14
2023-03-29T05:19:41.327Z,6.17
2023-03-29T05:22:08.946Z,6.13
2023-03-29T05:24:36.041Z,6.07
2023-03-29T05:27:03.624Z,6.10
2023-03-29T05:29:32.661Z,6.09
2023-03-29T05:31:59.708Z,6.07
2023-03-29T05:34:27.081Z,6.08
2023-03-29T05:36:53.933Z,6.34
2023-03-29T05:39:21.116Z,6.44
2023-03-29T05:41:47.932Z,6.46
2023-03-29T05:44:14.768Z,6.58
2023-03-29T05:46:41.797Z,6.41
2023-03-29T05:49:08.647Z,6.29
2023-03-29T05:51:36.017Z,6.29
2023-03-29T05:54:02.878Z,6.28
2023-03-29T05:56:29.863Z,6.28
2023-03-29T05:58:58.526Z,6.25
2023-03-29T06:01:25.849Z,6.23
2023-03-29T06:03:52.993Z,6.14
2023-03-29T06:06:21.275Z,6.15
2023-03-29T06:08:48.080Z,6.15
2023-03-29T06:11:15.814Z,6.18
2023-03-29T06:13:42.650Z,6.22
2023-03-29T06:16:11.135Z,6.23
2023-03-29T06:18:41.099Z,6.33
2023-03-29T06:21:09.344Z,6.40
2023-03-29T06:23:36.642Z,6.54
2023-03-29T06:26:05.547Z,6.62
2023-03-29T06:28:32.860Z,6.68
2023-03-29T06:31:02.532Z,6.74
2023-03-29T06:33:30.794Z,6.81
2023-03-29T06:35:58.285Z,6.90
2023-03-29T06:38:28.311Z,6.99
2023-03-29T06:41:10.948Z,7.00
2023-03-29T06:43:39.808Z,7.02
2023-03-29T06:46:12.136Z,7.05
2023-03-29T06:48:41.262Z,7.10
2023-03-29T06:51:08.288Z,7.16
2023-03-29T06:53:35.347Z,7.22
2023-03-29T06:56:08.815Z,7.28
2023-03-29T06:58:35.965Z,7.28
2023-03-29T07:01:04.022Z,7.32
2023-03-29T07:03:34.838Z,7.32
2023-03-29T07:06:04.384Z,7.30
2023-03-29T07:08:31.726Z,7.41
2023-03-29T07:10:59.327Z,7.46
2023-03-29T07:13:27.470Z,7.55
2023-03-29T07:15:54.359Z,7.65
2023-03-29T07:18:21.194Z,7.69
2023-03-29T07:20:48.360Z,7.70
2023-03-29T07:23:15.495Z,7.75
2023-03-29T07:25:42.360Z,7.81
2023-03-29T07:28:09.143Z,7.84
2023-03-29T07:30:37.130Z,7.89
2023-03-29T07:33:04.457Z,7.94
2023-03-29T07:35:34.241Z,8.03
2023-03-29T07:38:01.086Z,8.05
2023-03-29T07:40:28.124Z,8.12
2023-03-29T07:42:56.999Z,8.17
2023-03-29T07:45:28.552Z,8.22
2023-03-29T07:48:00.012Z,8.28
2023-03-29T07:50:28.076Z,8.39
2023-03-29T07:52:56.787Z,8.55
2023-03-29T07:55:23.709Z,8.61
2023-03-29T07:57:51.687Z,8.60
2023-03-29T08:00:19.967Z,8.61
2023-03-29T08:02:50.627Z,8.65
2023-03-29T08:05:29.257Z,8.74
2023-03-29T08:08:06.584Z,8.78
2023-03-29T08:10:36.556Z,8.81
2023-03-29T08:13:09.060Z,8.84
2023-03-29T08:15:39.111Z,8.92
2023-03-29T08:18:07.992Z,8.96
2023-03-29T08:20:35.056Z,8.99
2023-03-29T08:23:02.082Z,9.06
2023-03-29T08:25:29.068Z,9.13
2023-03-29T08:27:55.905Z,9.18
2023-03-29T08:30:22.749Z,9.27
2023-03-29T08:32:51.645Z,9.30
2023-03-29T08:35:21.238Z,9.33
2023-03-29T08:37:48.308Z,9.42
2023-03-29T08:40:24.727Z,9.46
2023-03-29T08:43:11.705Z,9.51
2023-03-29T08:46:14.738Z,9.61
2023-03-29T08:48:50.866Z,9.71
2023-03-29T08:51:40.474Z,9.81
2023-03-29T08:54:19.279Z,9.89
2023-03-29T08:56:49.993Z,10.05
2023-03-29T08:59:34.641Z,10.14
2023-03-29T09:02:09.959Z,10.18
2023-03-29T09:04:42.424Z,10.28
2023-03-29T09:07:10.798Z,10.40
2023-03-29T09:09:38.153Z,10.48
2023-03-29T09:12:18.654Z,10.59
2023-03-29T09:15:09.759Z,10.67
2023-03-29T09:18:17.327Z,10.79
2023-03-29T09:21:22.583Z,11.01
2023-03-29T09:24:03.671Z,11.10
2023-03-29T09:26:36.950Z,11.23
2023-03-29T09:29:41.707Z,11.44
2023-03-29T09:32:23.169Z,11.60
2023-03-29T09:35:07.783Z,11.74
2023-03-29T09:37:39.446Z,11.82
2023-03-29T09:40:16.758Z,11.79
2023-03-29T09:42:44.978Z,11.79
2023-03-29T09:45:11.909Z,11.87
2023-03-29T09:47:56.984Z,11.97
2023-03-29T09:50:46.739Z,12.05
2023-03-29T09:53:18.631Z,12.15
2023-03-29T09:55:50.321Z,12.45
2023-03-29T09:58:23.782Z,12.66
2023-03-29T10:00:51.461Z,12.87
2023-03-29T10:03:31.059Z,12.92
2023-03-29T10:06:02.618Z,12.99
2023-03-29T10:08:39.414Z,13.01
2023-03-29T10:11:23.680Z,13.15
2023-03-29T10:13:59.302Z,13.35
2023-03-29T10:16:56.887Z,13.56
2023-03-29T10:19:34.800Z,13.86
2023-03-29T10:22:22.965Z,13.99
2023-03-29T10:24:53.189Z,14.58
2023-03-29T10:27:28.164Z,14.97
2023-03-29T10:29:58.532Z,15.34
2023-03-29T10:32:25.301Z,15.82
2023-03-29T10:34:53.616Z,16.20
2023-03-29T10:37:22.940Z,16.81
2023-03-29T10:39:50.570Z,17.13
2023-03-29T10:42:22.864Z,17.19
2023-03-29T10:44:58.514Z,17.25
2023-03-29T10:47:31.063Z,17.21
2023-03-29T10:50:01.731Z,16.92
2023-03-29T10:52:30.174Z,17.06
2023-03-29T10:54:59.215Z,16.90
2023-03-29T10:58:17.948Z,16.64
2023-03-29T11:00:57.039Z,16.75
2023-03-29T11:04:15.961Z,17.15
2023-03-29T11:07:17.637Z,17.64
2023-03-29T11:10:30.624Z,17.29
2023-03-29T11:13:27.697Z,16.59
2023-03-29T11:16:11.427Z,16.36
2023-03-29T11:18:51.106Z,16.18
2023-03-29T11:22:18.346Z,16.06
2023-03-29T11:24:52.886Z,16.05
2023-03-29T11:27:28.382Z,16.21
2023-03-29T11:30:06.367Z,16.27
2023-03-29T11:32:42.714Z,16.15
2023-03-29T11:35:40.508Z,16.21
2023-03-29T11:38:25.700Z,16.29
2023-03-29T11:41:08.378Z,16.55
2023-03-29T11:43:40.549Z,16.85
2023-03-29T11:46:17.530Z,16.68
2023-03-29T11:48:56.711Z,16.58
2023-03-29T11:51:42.835Z,16.62
2023-03-29T11:54:27.679Z,16.58
2023-03-29T11:57:30.885Z,16.68
2023-03-29T12:00:30.893Z,16.36
2023-03-29T12:03:22.005Z,16.07
2023-03-29T12:05:58.947Z,15.86
2023-03-29T12:08:39.573Z,15.71
2023-03-29T12:11:33.504Z,15.63
2023-03-29T12:14:15.525Z,15.57
2023-03-29T12:16:51.972Z,15.56
2023-03-29T12:19:44.163Z,15.54
2023-03-29T12:22:11.065Z,15.47
2023-03-29T12:24:43.727Z,15.42
2023-03-29T12:27:28.307Z,15.44
2023-03-29T12:30:24.662Z,15.50
2023-03-29T12:33:25.350Z,15.51
2023-03-29T12:35:58.994Z,15.49
2023-03-29T12:38:30.949Z,15.36
2023-03-29T12:41:01.980Z,15.28
2023-03-29T12:43:41.498Z,15.24
2023-03-29T12:46:19.352Z,15.21
2023-03-29T12:48:53.163Z,15.17
2023-03-29T12:51:29.226Z,15.17
2023-03-29T12:54:13.875Z,15.19
2023-03-29T12:57:18.652Z,15.15
2023-03-29T12:59:49.435Z,15.13
2023-03-29T13:02:17.556Z,15.17
2023-03-29T13:04:54.117Z,15.26
2023-03-29T13:07:23.965Z,15.48
2023-03-29T13:09:56.982Z,15.71
2023-03-29T13:12:35.656Z,15.74
2023-03-29T13:15:14.635Z,15.61
2023-03-29T13:18:10.978Z,15.47
2023-03-29T13:21:09.758Z,15.30
2023-03-29T13:24:00.600Z,15.16
2023-03-29T13:26:56.970Z,15.01
2023-03-29T13:29:42.621Z,14.93
2023-03-29T13:32:40.272Z,14.69
2023-03-29T13:35:20.270Z,14.47
2023-03-29T13:38:31.867Z,14.29
2023-03-29T13:41:05.257Z,14.12
2023-03-29T13:43:58.676Z,14.10
2023-03-29T13:46:38.623Z,14.14
2023-03-29T13:49:24.026Z,14.30
2023-03-29T13:51:53.917Z,14.88
2023-03-29T13:54:33.503Z,14.82
2023-03-29T13:57:21.474Z,15.19
2023-03-29T14:00:00.477Z,15.25
2023-03-29T14:02:55.887Z,14.88
2023-03-29T14:05:32.717Z,14.70
2023-03-29T14:08:21.837Z,14.79
2023-03-29T14:10:49.695Z,14.77
2023-03-29T14:13:24.647Z,14.67
2023-03-29T14:16:10.211Z,14.72
2023-03-29T14:18:41.245Z,14.92
2023-03-29T14:21:12.325Z,15.30
2023-03-29T14:23:43.522Z,15.62
2023-03-29T14:26:24.494Z,15.84
2023-03-29T14:28:56.998Z,15.95
2023-03-29T14:31:31.280Z,16.11
2023-03-29T14:34:05.963Z,16.25
2023-03-29T14:36:34.288Z,16.14
2023-03-29T14:39:21.551Z,15.98
2023-03-29T14:41:57.041Z,15.69
2023-03-29T14:44:29.998Z,15.44
2023-03-29T14:46:57.152Z,15.26
2023-03-29T14:49:24.547Z,15.21
2023-03-29T14:51:54.726Z,15.27
2023-03-29T14:54:26.887Z,15.48
2023-03-29T14:56:55.172Z,16.15
2023-03-29T14:59:42.735Z,16.22
2023-03-29T15:02:31.110Z,16.09
2023-03-29T15:05:05.017Z,16.00
2023-03-29T15:07:34.980Z,15.91
2023-03-29T15:10:06.227Z,15.86
2023-03-29T15:12:34.199Z,15.79
2023-03-29T15:15:02.567Z,15.69
2023-03-29T15:17:50.394Z,15.65
2023-03-29T15:20:29.587Z,15.69
2023-03-29T15:23:14.663Z,15.78
2023-03-29T15:26:07.319Z,15.88
2023-03-29T15:28:44.775Z,15.86
2023-03-29T15:31:17.703Z,15.85
2023-03-29T15:33:45.084Z,15.83
2023-03-29T15:36:14.556Z,15.83
2023-03-29T15:38:45.067Z,15.82
2023-03-29T15:41:14.554Z,15.75
2023-03-29T15:43:42.438Z,15.72
2023-03-29T15:46:14.337Z,15.64
2023-03-29T15:48:41.979Z,15.55
2023-03-29T15:51:12.363Z,15.44
2023-03-29T15:53:40.356Z,15.37
2023-03-29T15:56:11.593Z,15.33
2023-03-29T15:58:39.095Z,15.32
2023-03-29T16:01:37.208Z,15.31
2023-03-29T16:04:07.897Z,15.27
2023-03-29T16:06:34.941Z,15.32
2023-03-29T16:09:02.114Z,15.35
2023-03-29T16:11:28.899Z,15.37
2023-03-29T16:13:56.798Z,15.37
2023-03-29T16:16:24.580Z,15.40
2023-03-29T16:18:51.952Z,15.39
2023-03-29T16:21:22.711Z,15.41
2023-03-29T16:23:51.257Z,15.41
2023-03-29T16:26:18.135Z,15.33
2023-03-29T16:28:44.928Z,15.32
2023-03-29T16:31:13.543Z,15.33
2023-03-29T16:33:41.379Z,15.32
2023-03-29T16:36:11.022Z,15.28
2023-03-29T16:38:38.353Z,15.19
2023-03-29T16:41:05.629Z,15.04
2023-03-29T16:43:32.408Z,14.97
2023-03-29T16:45:59.433Z,14.95
2023-03-29T16:48:27.009Z,14.89
2023-03-29T16:50:53.988Z,14.87
2023-03-29T16:53:21.476Z,14.82
2023-03-29T16:55:48.761Z,14.77
2023-03-29T16:58:16.059Z,14.81
2023-03-29T17:00:46.385Z,14.79
2023-03-29T17:03:15.763Z,14.71
2023-03-29T17:05:54.074Z,14.64
2023-03-29T17:08:21.693Z,14.58
2023-03-29T17:10:54.199Z,14.46
2023-03-29T17:13:23.698Z,14.43
2023-03-29T17:15:52.372Z,14.38
2023-03-29T17:18:20.474Z,14.37
2023-03-29T17:20:47.546Z,14.38
2023-03-29T17:23:14.415Z,14.34
2023-03-29T17:25:43.383Z,14.28
2023-03-29T17:28:11.255Z,14.26
2023-03-29T17:30:38.722Z,14.20
2023-03-29T17:33:06.086Z,14.12
2023-03-29T17:35:32.992Z,14.06
2023-03-29T17:38:01.278Z,14.01
2023-03-29T17:40:28.202Z,14.00
2023-03-29T17:42:55.070Z,13.96
2023-03-29T17:45:22.304Z,13.93
2023-03-29T17:47:49.385Z,13.91
2023-03-29T17:50:16.752Z,13.86
2023-03-29T17:52:43.916Z,13.85
2023-03-29T17:55:13.541Z,13.86
2023-03-29T17:57:41.767Z,13.84
2023-03-29T18:00:13.232Z,13.77
2023-03-29T18:02:41.151Z,13.67
2023-03-29T18:05:09.414Z,13.60
2023-03-29T18:07:37.564Z,13.56
2023-03-29T18:10:05.852Z,13.52
2023-03-29T18:12:32.714Z,13.48
2023-03-29T18:14:59.610Z,13.43
2023-03-29T18:17:27.468Z,13.42
2023-03-29T18:19:54.775Z,13.38
2023-03-29T18:22:23.925Z,13.37
2023-03-29T18:24:51.289Z,13.36
2023-03-29T18:27:19.805Z,13.33
2023-03-29T18:29:46.713Z,13.32
2023-03-29T18:32:13.762Z,13.33
2023-03-29T18:34:40.933Z,13.32
2023-03-29T18:37:13.383Z,13.33
2023-03-29T18:39:41.378Z,13.30
2023-03-29T18:42:10.806Z,13.33
2023-03-29T18:44:40.435Z,13.33
2023-03-29T18:47:07.726Z,13.29
2023-03-29T18:49:34.630Z,13.27
2023-03-29T18:52:02.019Z,13.27
2023-03-29T18:54:28.884Z,13.19
2023-03-29T18:56:57.898Z,13.09
2023-03-29T18:59:26.049Z,13.03
2023-03-29T19:01:53.058Z,13.02
2023-03-29T19:04:20.044Z,13.00
2023-03-29T19:06:47.416Z,12.94
2023-03-29T19:09:14.308Z,12.86
2023-03-29T19:11:41.137Z,12.79
2023-03-29T19:14:09.020Z,12.75
2023-03-29T19:16:36.413Z,12.64
2023-03-29T19:19:05.631Z,12.55
2023-03-29T19:21:33.295Z,12.56
2023-03-29T19:24:00.954Z,12.63
2023-03-29T19:26:33.191Z,12.63
2023-03-29T19:29:01.148Z,12.65
2023-03-29T19:31:28.341Z,12.65
2023-03-29T19:33:55.246Z,12.63
2023-03-29T19:36:22.448Z,12.65
2023-03-29T19:38:49.333Z,12.67
2023-03-29T19:41:16.261Z,12.61
2023-03-29T19:43:43.430Z,12.56
2023-03-29T19:46:12.604Z,12.56
2023-03-29T19:48:41.376Z,12.58
2023-03-29T19:51:08.795Z,12.61
2023-03-29T19:53:38.497Z,12.60
2023-03-29T19:56:07.844Z,12.58
2023-03-29T19:58:34.712Z,12.57
2023-03-29T20:01:01.578Z,12.58
2023-03-29T20:03:28.559Z,12.56
2023-03-29T20:05:56.609Z,12.60
2023-03-29T20:08:24.794Z,12.59
2023-03-29T20:11:03.804Z,12.52
2023-03-29T20:13:38.213Z,12.47
2023-03-29T20:16:08.871Z,12.38
2023-03-29T20:18:38.192Z,12.31
2023-03-29T20:21:07.709Z,12.24
2023-03-29T20:23:35.486Z,12.17
2023-03-29T20:26:03.920Z,12.13
2023-03-29T20:28:31.309Z,12.13
2023-03-29T20:31:04.462Z,12.08
2023-03-29T20:33:31.808Z,12.07
2023-03-29T20:35:59.179Z,12.03
2023-03-29T20:38:26.403Z,12.02
2023-03-29T20:40:55.148Z,12.10
2023-03-29T20:43:22.462Z,12.16
2023-03-29T20:45:53.430Z,12.13
2023-03-29T20:48:24.126Z,12.09
2023-03-29T20:50:51.465Z,12.08
2023-03-29T20:53:20.438Z,12.08
2023-03-29T20:55:47.693Z,12.07
2023-03-29T20:58:15.527Z,12.06
2023-03-29T21:00:42.344Z,12.07
2023-03-29T21:03:09.732Z,12.05
2023-03-29T21:05:36.862Z,12.01
2023-03-29T21:08:04.550Z,11.97
2023-03-29T21:10:31.402Z,11.99
2023-03-29T21:13:00.307Z,11.99
2023-03-29T21:15:30.461Z,11.99
2023-03-29T21:17:57.632Z,12.01
2023-03-29T21:20:24.539Z,12.03
2023-03-29T21:22:51.609Z,11.96
2023-03-29T21:25:18.789Z,11.91
2023-03-29T21:27:46.018Z,11.86
2023-03-29T21:30:13.732Z,11.79
2023-03-29T21:32:41.145Z,11.73
2023-03-29T21:35:09.762Z,11.71
2023-03-29T21:37:36.784Z,11.68
2023-03-29T21:40:06.200Z,11.68
2023-03-29T21:42:34.605Z,11.69
2023-03-29T21:45:02.203Z,11.67
2023-03-29T21:47:29.187Z,11.59
2023-03-29T21:49:55.992Z,11.48
2023-03-29T21:52:23.008Z,11.44
2023-03-29T21:54:49.849Z,11.38
2023-03-29T21:57:16.783Z,11.38
2023-03-29T21:59:43.695Z,11.33
2023-03-29T22:02:10.794Z,11.32
2023-03-29T22:04:37.931Z,11.33
2023-03-29T22:07:06.215Z,11.30
2023-03-29T22:09:37.587Z,11.29
2023-03-29T22:12:04.777Z,11.27
2023-03-29T22:14:35.093Z,11.21
2023-03-29T22:17:05.985Z,11.24
2023-03-29T22:19:39.125Z,11.29
2023-03-29T22:22:13.017Z,11.25
2023-03-29T22:24:41.329Z,11.16
2023-03-29T22:27:08.371Z,11.02
2023-03-29T22:29:35.334Z,10.95
2023-03-29T22:32:02.333Z,10.93
2023-03-29T22:34:30.013Z,10.90
2023-03-29T22:36:56.833Z,10.92
2023-03-29T22:39:24.158Z,10.95
2023-03-29T22:41:51.291Z,10.97
2023-03-29T22:44:18.083Z,11.00
2023-03-29T22:46:44.916Z,11.00
2023-03-29T22:49:11.813Z,10.98
2023-03-29T22:51:38.723Z,10.94
2023-03-29T22:54:05.933Z,10.97
2023-03-29T22:56:35.630Z,10.97
2023-03-29T22:59:02.433Z,10.97
2023-03-29T23:01:29.641Z,10.99
2023-03-29T23:03:56.667Z,10.95
2023-03-29T23:06:23.594Z,10.91
2023-03-29T23:08:50.379Z,10.89
2023-03-29T23:11:17.171Z,10.87
2023-03-29T23:13:43.959Z,10.88
2023-03-29T23:16:11.197Z,10.92
2023-03-29T23:18:38.618Z,10.94
2023-03-29T23:21:06.132Z,10.97
2023-03-29T23:23:33.885Z,11.00
2023-03-29T23:26:01.753Z,10.90
2023-03-29T23:28:30.691Z,10.84
2023-03-29T23:31:00.910Z,10.82
2023-03-29T23:33:33.237Z,10.80
2023-03-29T23:36:03.657Z,10.82
2023-03-29T23:38:33.165Z,10.83
2023-03-29T23:41:03.248Z,10.87
2023-03-29T23:43:35.064Z,10.90
2023-03-29T23:46:06.010Z,10.86
2023-03-29T23:48:34.283Z,10.88
2023-03-29T23:51:02.894Z,10.94
2023-03-29T23:53:31.406Z,11.00
2023-03-29T23:56:01.265Z,11.01
2023-03-29T23:58:35.321Z,11.00
